sensor_id;sensor_type;location;lat;lon;timestamp;temperature;humidity
3156;DHT22;1588;50.892;7.082;2023-05-10T00:03:08;13.20;99.90
3156;DHT22;1588;50.892;7.082;2023-05-10T00:08:12;13.20;99.90
3156;DHT22;1588;50.892;7.082;2023-05-10T00:13:16;13.20;99.90
3156;DHT22;1588;50.892;7.082;2023-05-10T00:18:22;13.20;99.90
3156;DHT22;1588;50.892;7.082;2023-05-10T00:23:25;13.30;99.90
3156;DHT22;1588;50.892;7.082;2023-05-10T00:28:29;13.20;99.90
3156;DHT22;1588;50.892;7.082;2023-05-10T00:33:40;13.30;99.90
3156;DHT22;1588;50.892;7.082;2023-05-10T00:38:43;13.20;99.90
3156;DHT22;1588;50.892;7.082;2023-05-10T00:43:51;13.30;99.90
3156;DHT22;1588;50.892;7.082;2023-05-10T00:48:55;13.30;99.90
3156;DHT22;1588;50.892;7.082;2023-05-10T00:53:58;13.30;99.90
3156;DHT22;1588;50.892;7.082;2023-05-10T00:59:04;13.30;99.90
3156;DHT22;1588;50.892;7.082;2023-05-10T01:04:12;13.30;99.90
3156;DHT22;1588;50.892;7.082;2023-05-10T01:09:15;13.30;99.90
3156;DHT22;1588;50.892;7.082;2023-05-10T01:14:21;13.30;99.90
3156;DHT22;1588;50.892;7.082;2023-05-10T01:19:26;13.40;99.90
3156;DHT22;1588;50.892;7.082;2023-05-10T01:24:58;13.40;99.90
3156;DHT22;1588;50.892;7.082;2023-05-10T01:35:53;13.30;99.90
3156;DHT22;1588;50.892;7.082;2023-05-10T01:41:05;13.30;99.90
3156;DHT22;1588;50.892;7.082;2023-05-10T01:46:17;13.40;99.90
3156;DHT22;1588;50.892;7.082;2023-05-10T01:51:27;13.30;99.90
3156;DHT22;1588;50.892;7.082;2023-05-10T01:56:33;13.30;99.90
3156;DHT22;1588;50.892;7.082;2023-05-10T02:01:40;13.30;99.90
3156;DHT22;1588;50.892;7.082;2023-05-10T02:06:48;13.30;99.90
3156;DHT22;1588;50.892;7.082;2023-05-10T02:11:52;13.30;99.90
3156;DHT22;1588;50.892;7.082;2023-05-10T02:16:56;13.20;99.90
3156;DHT22;1588;50.892;7.082;2023-05-10T02:22:01;13.30;99.90
3156;DHT22;1588;50.892;7.082;2023-05-10T02:27:06;13.30;99.90
3156;DHT22;1588;50.892;7.082;2023-05-10T02:32:10;13.30;99.90
3156;DHT22;1588;50.892;7.082;2023-05-10T02:37:15;13.30;99.90
3156;DHT22;1588;50.892;7.082;2023-05-10T02:42:23;13.30;99.90
3156;DHT22;1588;50.892;7.082;2023-05-10T02:47:28;13.20;99.90
3156;DHT22;1588;50.892;7.082;2023-05-10T02:52:39;13.20;99.90
3156;DHT22;1588;50.892;7.082;2023-05-10T02:57:44;13.20;99.90
3156;DHT22;1588;50.892;7.082;2023-05-10T03:02:48;13.20;99.90
3156;DHT22;1588;50.892;7.082;2023-05-10T03:07:52;13.20;99.90
3156;DHT22;1588;50.892;7.082;2023-05-10T03:13:07;13.20;99.90
3156;DHT22;1588;50.892;7.082;2023-05-10T03:18:15;13.20;99.90
3156;DHT22;1588;50.892;7.082;2023-05-10T03:23:26;13.20;99.90
3156;DHT22;1588;50.892;7.082;2023-05-10T03:28:29;13.20;99.90
3156;DHT22;1588;50.892;7.082;2023-05-10T03:33:31;13.20;99.90
3156;DHT22;1588;50.892;7.082;2023-05-10T03:38:35;13.20;99.90
3156;DHT22;1588;50.892;7.082;2023-05-10T03:43:41;13.20;99.90
3156;DHT22;1588;50.892;7.082;2023-05-10T03:48:43;13.20;99.90
3156;DHT22;1588;50.892;7.082;2023-05-10T03:53:47;13.20;99.90
3156;DHT22;1588;50.892;7.082;2023-05-10T03:58:51;13.20;99.90
3156;DHT22;1588;50.892;7.082;2023-05-10T04:03:53;13.20;99.90
3156;DHT22;1588;50.892;7.082;2023-05-10T04:08:57;13.20;99.90
3156;DHT22;1588;50.892;7.082;2023-05-10T04:14:00;13.20;99.90
3156;DHT22;1588;50.892;7.082;2023-05-10T04:19:04;13.30;99.90
3156;DHT22;1588;50.892;7.082;2023-05-10T04:24:08;13.30;99.90
3156;DHT22;1588;50.892;7.082;2023-05-10T04:29:10;13.20;99.90
3156;DHT22;1588;50.892;7.082;2023-05-10T04:34:12;13.20;99.90
3156;DHT22;1588;50.892;7.082;2023-05-10T04:39:16;13.20;99.90
3156;DHT22;1588;50.892;7.082;2023-05-10T04:44:18;13.20;99.90
3156;DHT22;1588;50.892;7.082;2023-05-10T04:49:21;13.20;99.90
3156;DHT22;1588;50.892;7.082;2023-05-10T04:54:25;13.20;99.90
3156;DHT22;1588;50.892;7.082;2023-05-10T04:59:27;13.20;99.90
3156;DHT22;1588;50.892;7.082;2023-05-10T05:04:30;13.20;99.90
3156;DHT22;1588;50.892;7.082;2023-05-10T05:09:35;13.30;99.90
3156;DHT22;1588;50.892;7.082;2023-05-10T05:14:37;13.30;99.90
3156;DHT22;1588;50.892;7.082;2023-05-10T05:19:39;13.40;99.90
3156;DHT22;1588;50.892;7.082;2023-05-10T05:24:43;13.40;99.90
3156;DHT22;1588;50.892;7.082;2023-05-10T05:29:45;13.50;99.90
3156;DHT22;1588;50.892;7.082;2023-05-10T05:34:48;13.50;99.90
3156;DHT22;1588;50.892;7.082;2023-05-10T05:39:52;13.60;99.90
3156;DHT22;1588;50.892;7.082;2023-05-10T05:44:56;13.60;99.90
3156;DHT22;1588;50.892;7.082;2023-05-10T05:49:58;13.60;99.90
3156;DHT22;1588;50.892;7.082;2023-05-10T05:55:04;13.60;99.90
3156;DHT22;1588;50.892;7.082;2023-05-10T06:00:07;13.70;99.90
3156;DHT22;1588;50.892;7.082;2023-05-10T06:05:10;13.80;99.90
3156;DHT22;1588;50.892;7.082;2023-05-10T06:10:17;13.70;99.90
3156;DHT22;1588;50.892;7.082;2023-05-10T06:15:19;13.70;99.90
3156;DHT22;1588;50.892;7.082;2023-05-10T06:20:25;13.70;99.90
3156;DHT22;1588;50.892;7.082;2023-05-10T06:25:30;13.80;99.90
3156;DHT22;1588;50.892;7.082;2023-05-10T06:30:36;13.90;99.90
3156;DHT22;1588;50.892;7.082;2023-05-10T06:35:39;14.00;99.90
3156;DHT22;1588;50.892;7.082;2023-05-10T06:40:43;14.00;99.90
3156;DHT22;1588;50.892;7.082;2023-05-10T06:45:46;13.80;99.90
3156;DHT22;1588;50.892;7.082;2023-05-10T06:50:50;13.70;99.90
3156;DHT22;1588;50.892;7.082;2023-05-10T06:55:55;13.70;99.90
3156;DHT22;1588;50.892;7.082;2023-05-10T07:01:02;13.60;99.90
3156;DHT22;1588;50.892;7.082;2023-05-10T07:06:05;13.60;99.90
3156;DHT22;1588;50.892;7.082;2023-05-10T07:11:10;13.60;99.90
3156;DHT22;1588;50.892;7.082;2023-05-10T07:16:13;13.60;99.90
3156;DHT22;1588;50.892;7.082;2023-05-10T07:21:15;13.60;99.90
3156;DHT22;1588;50.892;7.082;2023-05-10T07:26:19;13.60;99.90
3156;DHT22;1588;50.892;7.082;2023-05-10T07:31:21;13.60;99.90
3156;DHT22;1588;50.892;7.082;2023-05-10T07:36:24;13.60;99.90
3156;DHT22;1588;50.892;7.082;2023-05-10T07:41:27;13.60;99.90
3156;DHT22;1588;50.892;7.082;2023-05-10T07:46:30;13.60;99.90
3156;DHT22;1588;50.892;7.082;2023-05-10T07:51:32;13.60;99.90
3156;DHT22;1588;50.892;7.082;2023-05-10T07:56:36;13.60;99.90
3156;DHT22;1588;50.892;7.082;2023-05-10T08:01:40;13.70;99.90
3156;DHT22;1588;50.892;7.082;2023-05-10T08:06:42;13.70;99.90
3156;DHT22;1588;50.892;7.082;2023-05-10T08:11:46;13.70;99.90
3156;DHT22;1588;50.892;7.082;2023-05-10T08:16:48;13.90;99.90
3156;DHT22;1588;50.892;7.082;2023-05-10T08:21:51;14.00;99.90
3156;DHT22;1588;50.892;7.082;2023-05-10T08:26:56;14.30;99.90
3156;DHT22;1588;50.892;7.082;2023-05-10T08:31:59;14.60;99.90
3156;DHT22;1588;50.892;7.082;2023-05-10T08:37:02;15.10;99.90
3156;DHT22;1588;50.892;7.082;2023-05-10T08:42:06;15.40;99.90
3156;DHT22;1588;50.892;7.082;2023-05-10T08:47:10;15.80;99.90
3156;DHT22;1588;50.892;7.082;2023-05-10T08:52:15;15.90;99.90
3156;DHT22;1588;50.892;7.082;2023-05-10T08:57:20;15.90;99.90
3156;DHT22;1588;50.892;7.082;2023-05-10T09:02:23;15.70;99.90
3156;DHT22;1588;50.892;7.082;2023-05-10T09:07:26;15.20;99.90
3156;DHT22;1588;50.892;7.082;2023-05-10T09:12:30;14.80;99.90
3156;DHT22;1588;50.892;7.082;2023-05-10T09:17:33;14.70;99.90
3156;DHT22;1588;50.892;7.082;2023-05-10T09:22:36;14.80;99.90
3156;DHT22;1588;50.892;7.082;2023-05-10T09:27:41;14.70;99.90
3156;DHT22;1588;50.892;7.082;2023-05-10T09:32:45;14.80;99.90
3156;DHT22;1588;50.892;7.082;2023-05-10T09:37:49;14.70;99.90
3156;DHT22;1588;50.892;7.082;2023-05-10T09:42:58;14.80;99.90
3156;DHT22;1588;50.892;7.082;2023-05-10T09:48:02;15.10;99.90
3156;DHT22;1588;50.892;7.082;2023-05-10T09:53:05;15.50;99.90
3156;DHT22;1588;50.892;7.082;2023-05-10T09:58:09;15.70;99.90
3156;DHT22;1588;50.892;7.082;2023-05-10T10:03:16;15.60;99.90
3156;DHT22;1588;50.892;7.082;2023-05-10T10:08:18;15.40;99.90
3156;DHT22;1588;50.892;7.082;2023-05-10T10:13:22;15.10;99.90
3156;DHT22;1588;50.892;7.082;2023-05-10T10:18:25;14.60;99.90
3156;DHT22;1588;50.892;7.082;2023-05-10T10:23:29;14.40;99.90
3156;DHT22;1588;50.892;7.082;2023-05-10T10:28:39;14.70;99.90
3156;DHT22;1588;50.892;7.082;2023-05-10T10:33:56;15.20;99.90
3156;DHT22;1588;50.892;7.082;2023-05-10T10:39:01;16.20;99.90
3156;DHT22;1588;50.892;7.082;2023-05-10T10:44:35;17.00;99.90
3156;DHT22;1588;50.892;7.082;2023-05-10T10:49:43;16.50;99.90
3156;DHT22;1588;50.892;7.082;2023-05-10T10:54:52;16.40;99.90
3156;DHT22;1588;50.892;7.082;2023-05-10T11:00:27;16.30;99.90
3156;DHT22;1588;50.892;7.082;2023-05-10T11:05:41;16.00;99.90
3156;DHT22;1588;50.892;7.082;2023-05-10T11:11:03;15.80;99.90
3156;DHT22;1588;50.892;7.082;2023-05-10T11:16:16;16.00;99.90
3156;DHT22;1588;50.892;7.082;2023-05-10T11:21:19;15.70;99.90
3156;DHT22;1588;50.892;7.082;2023-05-10T11:26:22;15.70;99.90
3156;DHT22;1588;50.892;7.082;2023-05-10T11:31:30;16.20;99.90
3156;DHT22;1588;50.892;7.082;2023-05-10T11:36:36;17.10;99.90
3156;DHT22;1588;50.892;7.082;2023-05-10T11:41:41;17.50;99.90
3156;DHT22;1588;50.892;7.082;2023-05-10T11:46:47;17.20;99.90
3156;DHT22;1588;50.892;7.082;2023-05-10T11:51:50;16.90;99.90
3156;DHT22;1588;50.892;7.082;2023-05-10T11:56:58;16.90;99.90
3156;DHT22;1588;50.892;7.082;2023-05-10T12:02:03;17.40;99.90
3156;DHT22;1588;50.892;7.082;2023-05-10T12:07:06;17.80;99.90
3156;DHT22;1588;50.892;7.082;2023-05-10T12:12:08;17.90;99.90
3156;DHT22;1588;50.892;7.082;2023-05-10T12:17:13;17.90;99.90
3156;DHT22;1588;50.892;7.082;2023-05-10T12:22:20;18.40;99.90
3156;DHT22;1588;50.892;7.082;2023-05-10T12:27:22;19.10;99.90
3156;DHT22;1588;50.892;7.082;2023-05-10T12:32:39;19.70;99.90
3156;DHT22;1588;50.892;7.082;2023-05-10T12:37:42;19.70;99.90
3156;DHT22;1588;50.892;7.082;2023-05-10T12:42:44;19.80;99.90
3156;DHT22;1588;50.892;7.082;2023-05-10T12:47:48;19.40;99.90
3156;DHT22;1588;50.892;7.082;2023-05-10T12:52:51;19.00;99.90
3156;DHT22;1588;50.892;7.082;2023-05-10T12:57:53;18.40;99.90
3156;DHT22;1588;50.892;7.082;2023-05-10T13:03:03;18.20;99.90
3156;DHT22;1588;50.892;7.082;2023-05-10T13:08:07;18.30;99.90
3156;DHT22;1588;50.892;7.082;2023-05-10T13:13:10;19.20;99.90
3156;DHT22;1588;50.892;7.082;2023-05-10T13:18:14;19.70;99.90
3156;DHT22;1588;50.892;7.082;2023-05-10T13:23:16;19.90;99.90
3156;DHT22;1588;50.892;7.082;2023-05-10T13:28:18;20.20;99.90
3156;DHT22;1588;50.892;7.082;2023-05-10T13:33:26;20.40;99.90
3156;DHT22;1588;50.892;7.082;2023-05-10T13:38:30;20.30;99.90
3156;DHT22;1588;50.892;7.082;2023-05-10T13:43:33;19.30;99.90
3156;DHT22;1588;50.892;7.082;2023-05-10T13:48:37;18.60;99.90
3156;DHT22;1588;50.892;7.082;2023-05-10T13:53:42;18.40;99.90
3156;DHT22;1588;50.892;7.082;2023-05-10T13:58:44;18.20;99.90
3156;DHT22;1588;50.892;7.082;2023-05-10T14:03:51;18.70;99.90
3156;DHT22;1588;50.892;7.082;2023-05-10T14:08:53;18.80;99.90
3156;DHT22;1588;50.892;7.082;2023-05-10T14:13:59;18.50;99.90
3156;DHT22;1588;50.892;7.082;2023-05-10T14:19:03;18.20;99.90
3156;DHT22;1588;50.892;7.082;2023-05-10T14:24:05;18.00;99.90
3156;DHT22;1588;50.892;7.082;2023-05-10T14:29:08;18.00;99.90
3156;DHT22;1588;50.892;7.082;2023-05-10T14:34:12;18.10;99.90
3156;DHT22;1588;50.892;7.082;2023-05-10T14:39:14;18.20;99.90
3156;DHT22;1588;50.892;7.082;2023-05-10T14:44:17;18.10;99.90
3156;DHT22;1588;50.892;7.082;2023-05-10T14:49:21;17.90;99.90
3156;DHT22;1588;50.892;7.082;2023-05-10T14:54:28;17.80;99.90
3156;DHT22;1588;50.892;7.082;2023-05-10T14:59:31;17.60;99.90
3156;DHT22;1588;50.892;7.082;2023-05-10T15:04:34;17.50;99.90
3156;DHT22;1588;50.892;7.082;2023-05-10T15:09:36;17.40;99.90
3156;DHT22;1588;50.892;7.082;2023-05-10T15:14:40;17.60;99.90
3156;DHT22;1588;50.892;7.082;2023-05-10T15:19:44;17.90;99.90
3156;DHT22;1588;50.892;7.082;2023-05-10T15:24:49;18.00;99.90
3156;DHT22;1588;50.892;7.082;2023-05-10T15:29:52;17.90;99.90
3156;DHT22;1588;50.892;7.082;2023-05-10T15:34:55;17.60;99.90
3156;DHT22;1588;50.892;7.082;2023-05-10T15:40:00;17.30;99.90
3156;DHT22;1588;50.892;7.082;2023-05-10T15:45:05;17.00;99.90
3156;DHT22;1588;50.892;7.082;2023-05-10T15:50:10;16.80;99.90
3156;DHT22;1588;50.892;7.082;2023-05-10T15:55:16;16.60;99.90
3156;DHT22;1588;50.892;7.082;2023-05-10T16:00:18;16.40;99.90
3156;DHT22;1588;50.892;7.082;2023-05-10T16:05:22;16.50;99.90
3156;DHT22;1588;50.892;7.082;2023-05-10T16:10:24;16.40;99.90
3156;DHT22;1588;50.892;7.082;2023-05-10T16:15:27;16.20;99.90
3156;DHT22;1588;50.892;7.082;2023-05-10T16:20:31;16.00;99.90
3156;DHT22;1588;50.892;7.082;2023-05-10T16:25:34;15.80;99.90
3156;DHT22;1588;50.892;7.082;2023-05-10T16:30:36;15.70;99.90
3156;DHT22;1588;50.892;7.082;2023-05-10T16:35:43;15.50;99.90
3156;DHT22;1588;50.892;7.082;2023-05-10T16:40:45;15.50;99.90
3156;DHT22;1588;50.892;7.082;2023-05-10T16:45:48;15.30;99.90
3156;DHT22;1588;50.892;7.082;2023-05-10T16:50:51;15.20;99.90
3156;DHT22;1588;50.892;7.082;2023-05-10T16:55:53;15.20;99.90
3156;DHT22;1588;50.892;7.082;2023-05-10T17:00:56;15.00;99.90
3156;DHT22;1588;50.892;7.082;2023-05-10T17:06:00;14.80;99.90
3156;DHT22;1588;50.892;7.082;2023-05-10T17:11:02;14.80;99.90
3156;DHT22;1588;50.892;7.082;2023-05-10T17:16:05;14.70;99.90
3156;DHT22;1588;50.892;7.082;2023-05-10T17:21:09;14.60;99.90
3156;DHT22;1588;50.892;7.082;2023-05-10T17:26:12;14.50;99.90
3156;DHT22;1588;50.892;7.082;2023-05-10T17:31:14;14.60;99.90
3156;DHT22;1588;50.892;7.082;2023-05-10T17:36:18;14.80;99.90
3156;DHT22;1588;50.892;7.082;2023-05-10T17:41:21;14.80;99.90
3156;DHT22;1588;50.892;7.082;2023-05-10T17:46:30;14.90;99.90
3156;DHT22;1588;50.892;7.082;2023-05-10T17:51:34;14.90;99.90
3156;DHT22;1588;50.892;7.082;2023-05-10T17:56:37;14.80;99.90
3156;DHT22;1588;50.892;7.082;2023-05-10T18:01:39;14.60;99.90
3156;DHT22;1588;50.892;7.082;2023-05-10T18:06:47;14.70;99.90
3156;DHT22;1588;50.892;7.082;2023-05-10T18:12:02;14.60;99.90
3156;DHT22;1588;50.892;7.082;2023-05-10T18:17:05;14.30;99.90
3156;DHT22;1588;50.892;7.082;2023-05-10T18:22:09;14.20;99.90
3156;DHT22;1588;50.892;7.082;2023-05-10T18:27:11;14.10;99.90
3156;DHT22;1588;50.892;7.082;2023-05-10T18:32:14;14.00;99.90
3156;DHT22;1588;50.892;7.082;2023-05-10T18:37:19;13.90;99.90
3156;DHT22;1588;50.892;7.082;2023-05-10T18:42:21;13.90;99.90
3156;DHT22;1588;50.892;7.082;2023-05-10T18:47:26;13.80;99.90
3156;DHT22;1588;50.892;7.082;2023-05-10T18:52:30;13.80;99.90
3156;DHT22;1588;50.892;7.082;2023-05-10T18:57:33;13.90;99.90
3156;DHT22;1588;50.892;7.082;2023-05-10T19:02:41;13.90;99.90
3156;DHT22;1588;50.892;7.082;2023-05-10T19:07:44;13.80;99.90
3156;DHT22;1588;50.892;7.082;2023-05-10T19:12:49;13.60;99.90
3156;DHT22;1588;50.892;7.082;2023-05-10T19:17:51;13.40;99.90
3156;DHT22;1588;50.892;7.082;2023-05-10T19:22:55;13.20;99.90
3156;DHT22;1588;50.892;7.082;2023-05-10T19:27:58;13.10;99.90
3156;DHT22;1588;50.892;7.082;2023-05-10T19:33:00;13.10;99.90
3156;DHT22;1588;50.892;7.082;2023-05-10T19:38:05;13.20;99.90
3156;DHT22;1588;50.892;7.082;2023-05-10T19:43:08;13.20;99.90
3156;DHT22;1588;50.892;7.082;2023-05-10T19:48:13;13.20;99.90
3156;DHT22;1588;50.892;7.082;2023-05-10T19:53:17;13.20;99.90
3156;DHT22;1588;50.892;7.082;2023-05-10T19:58:19;13.30;99.90
3156;DHT22;1588;50.892;7.082;2023-05-10T20:03:22;13.20;99.90
3156;DHT22;1588;50.892;7.082;2023-05-10T20:08:25;13.20;99.90
3156;DHT22;1588;50.892;7.082;2023-05-10T20:13:28;13.20;99.90
3156;DHT22;1588;50.892;7.082;2023-05-10T20:18:31;13.10;99.90
3156;DHT22;1588;50.892;7.082;2023-05-10T20:23:34;13.10;99.90
3156;DHT22;1588;50.892;7.082;2023-05-10T20:28:37;13.10;99.90
3156;DHT22;1588;50.892;7.082;2023-05-10T20:33:39;13.00;99.90
3156;DHT22;1588;50.892;7.082;2023-05-10T20:38:43;13.00;99.90
3156;DHT22;1588;50.892;7.082;2023-05-10T20:43:46;13.00;99.90
3156;DHT22;1588;50.892;7.082;2023-05-10T20:48:48;13.00;99.90
3156;DHT22;1588;50.892;7.082;2023-05-10T20:53:52;13.00;99.90
3156;DHT22;1588;50.892;7.082;2023-05-10T20:58:55;13.00;99.90
3156;DHT22;1588;50.892;7.082;2023-05-10T21:03:57;13.00;99.90
3156;DHT22;1588;50.892;7.082;2023-05-10T21:09:00;12.90;99.90
3156;DHT22;1588;50.892;7.082;2023-05-10T21:14:03;13.00;99.90
3156;DHT22;1588;50.892;7.082;2023-05-10T21:19:05;13.00;99.90
3156;DHT22;1588;50.892;7.082;2023-05-10T21:24:09;12.90;99.90
3156;DHT22;1588;50.892;7.082;2023-05-10T21:29:12;12.80;99.90
3156;DHT22;1588;50.892;7.082;2023-05-10T21:34:14;12.70;99.90
3156;DHT22;1588;50.892;7.082;2023-05-10T21:39:19;12.70;99.90
3156;DHT22;1588;50.892;7.082;2023-05-10T21:44:24;12.70;99.90
3156;DHT22;1588;50.892;7.082;2023-05-10T21:49:26;12.60;99.90
3156;DHT22;1588;50.892;7.082;2023-05-10T21:54:33;12.60;99.90
3156;DHT22;1588;50.892;7.082;2023-05-10T21:59:38;12.60;99.90
3156;DHT22;1588;50.892;7.082;2023-05-10T22:04:40;12.50;99.90
3156;DHT22;1588;50.892;7.082;2023-05-10T22:09:44;12.50;99.90
3156;DHT22;1588;50.892;7.082;2023-05-10T22:14:46;12.50;99.90
3156;DHT22;1588;50.892;7.082;2023-05-10T22:19:48;12.50;99.90
3156;DHT22;1588;50.892;7.082;2023-05-10T22:24:52;12.50;99.90
3156;DHT22;1588;50.892;7.082;2023-05-10T22:29:55;12.50;99.90
3156;DHT22;1588;50.892;7.082;2023-05-10T22:34:57;12.50;99.90
3156;DHT22;1588;50.892;7.082;2023-05-10T22:40:01;12.50;99.90
3156;DHT22;1588;50.892;7.082;2023-05-10T22:45:04;12.50;99.90
3156;DHT22;1588;50.892;7.082;2023-05-10T22:50:08;12.50;99.90
3156;DHT22;1588;50.892;7.082;2023-05-10T22:55:12;12.60;99.90
3156;DHT22;1588;50.892;7.082;2023-05-10T23:00:15;12.60;99.90
3156;DHT22;1588;50.892;7.082;2023-05-10T23:05:17;12.60;99.90
3156;DHT22;1588;50.892;7.082;2023-05-10T23:10:21;12.70;99.90
3156;DHT22;1588;50.892;7.082;2023-05-10T23:15:24;12.70;99.90
3156;DHT22;1588;50.892;7.082;2023-05-10T23:20:26;12.80;99.90
3156;DHT22;1588;50.892;7.082;2023-05-10T23:25:30;12.60;99.90
3156;DHT22;1588;50.892;7.082;2023-05-10T23:30:32;12.40;99.90
3156;DHT22;1588;50.892;7.082;2023-05-10T23:35:34;12.30;99.90
3156;DHT22;1588;50.892;7.082;2023-05-10T23:40:41;12.30;99.90
3156;DHT22;1588;50.892;7.082;2023-05-10T23:45:51;12.10;99.90
3156;DHT22;1588;50.892;7.082;2023-05-10T23:50:55;12.10;99.90
3156;DHT22;1588;50.892;7.082;2023-05-10T23:56:02;12.00;99.90
